sensor_id;sensor_type;location;lat;lon;timestamp;P1;durP1;ratioP1;P2;durP2;ratioP2
61085;SDS011;46967;48.876;2.136;2023-05-07T00:00:28;11.27;;;1.70;;
61085;SDS011;46967;48.876;2.136;2023-05-07T00:02:53;5.55;;;2.05;;
61085;SDS011;46967;48.876;2.136;2023-05-07T00:05:19;4.75;;;1.52;;
61085;SDS011;46967;48.876;2.136;2023-05-07T00:07:44;4.60;;;1.50;;
61085;SDS011;46967;48.876;2.136;2023-05-07T00:10:10;3.78;;;1.50;;
61085;SDS011;46967;48.876;2.136;2023-05-07T00:12:37;2.97;;;1.27;;
61085;SDS011;46967;48.876;2.136;2023-05-07T00:15:02;4.97;;;1.55;;
61085;SDS011;46967;48.876;2.136;2023-05-07T00:17:29;4.43;;;1.73;;
61085;SDS011;46967;48.876;2.136;2023-05-07T00:19:54;5.85;;;2.22;;
61085;SDS011;46967;48.876;2.136;2023-05-07T00:22:20;4.75;;;2.00;;
61085;SDS011;46967;48.876;2.136;2023-05-07T00:24:46;4.93;;;1.90;;
61085;SDS011;46967;48.876;2.136;2023-05-07T00:27:11;5.10;;;1.80;;
61085;SDS011;46967;48.876;2.136;2023-05-07T00:29:36;2.95;;;1.50;;
61085;SDS011;46967;48.876;2.136;2023-05-07T00:32:02;4.88;;;2.00;;
61085;SDS011;46967;48.876;2.136;2023-05-07T00:34:27;7.07;;;2.08;;
61085;SDS011;46967;48.876;2.136;2023-05-07T00:36:52;5.53;;;2.03;;
61085;SDS011;46967;48.876;2.136;2023-05-07T00:39:18;2.85;;;1.85;;
61085;SDS011;46967;48.876;2.136;2023-05-07T00:41:43;6.18;;;2.17;;
61085;SDS011;46967;48.876;2.136;2023-05-07T00:44:09;4.88;;;1.80;;
61085;SDS011;46967;48.876;2.136;2023-05-07T00:46:34;4.38;;;1.60;;
61085;SDS011;46967;48.876;2.136;2023-05-07T00:48:59;3.80;;;1.60;;
61085;SDS011;46967;48.876;2.136;2023-05-07T00:51:25;3.60;;;1.63;;
61085;SDS011;46967;48.876;2.136;2023-05-07T00:53:52;5.50;;;1.77;;
61085;SDS011;46967;48.876;2.136;2023-05-07T00:56:18;4.00;;;1.58;;
61085;SDS011;46967;48.876;2.136;2023-05-07T00:58:46;4.45;;;1.80;;
61085;SDS011;46967;48.876;2.136;2023-05-07T01:01:12;4.65;;;1.63;;
61085;SDS011;46967;48.876;2.136;2023-05-07T01:03:37;2.50;;;1.45;;
61085;SDS011;46967;48.876;2.136;2023-05-07T01:06:03;5.97;;;1.75;;
61085;SDS011;46967;48.876;2.136;2023-05-07T01:08:31;4.47;;;1.80;;
61085;SDS011;46967;48.876;2.136;2023-05-07T01:10:57;4.45;;;1.80;;
61085;SDS011;46967;48.876;2.136;2023-05-07T01:13:24;4.57;;;1.70;;
61085;SDS011;46967;48.876;2.136;2023-05-07T01:15:49;4.03;;;1.80;;
61085;SDS011;46967;48.876;2.136;2023-05-07T01:18:15;2.28;;;1.40;;
61085;SDS011;46967;48.876;2.136;2023-05-07T01:20:41;5.20;;;1.52;;
61085;SDS011;46967;48.876;2.136;2023-05-07T01:23:07;3.60;;;1.90;;
61085;SDS011;46967;48.876;2.136;2023-05-07T01:25:34;5.22;;;1.80;;
61085;SDS011;46967;48.876;2.136;2023-05-07T01:27:59;5.93;;;1.90;;
61085;SDS011;46967;48.876;2.136;2023-05-07T01:30:26;3.75;;;1.83;;
61085;SDS011;46967;48.876;2.136;2023-05-07T01:33:08;2.80;;;1.55;;
61085;SDS011;46967;48.876;2.136;2023-05-07T01:35:37;3.47;;;1.90;;
61085;SDS011;46967;48.876;2.136;2023-05-07T01:38:05;5.88;;;1.73;;
61085;SDS011;46967;48.876;2.136;2023-05-07T01:40:31;3.08;;;1.67;;
61085;SDS011;46967;48.876;2.136;2023-05-07T01:42:59;2.22;;;1.70;;
61085;SDS011;46967;48.876;2.136;2023-05-07T01:45:25;4.57;;;2.08;;
61085;SDS011;46967;48.876;2.136;2023-05-07T01:47:50;3.40;;;1.60;;
61085;SDS011;46967;48.876;2.136;2023-05-07T01:50:18;3.28;;;1.80;;
61085;SDS011;46967;48.876;2.136;2023-05-07T01:52:45;4.93;;;1.70;;
61085;SDS011;46967;48.876;2.136;2023-05-07T01:55:12;2.88;;;1.63;;
61085;SDS011;46967;48.876;2.136;2023-05-07T01:57:37;3.25;;;1.73;;
61085;SDS011;46967;48.876;2.136;2023-05-07T02:00:03;5.57;;;2.00;;
61085;SDS011;46967;48.876;2.136;2023-05-07T02:02:30;3.00;;;1.85;;
61085;SDS011;46967;48.876;2.136;2023-05-07T02:04:55;4.97;;;2.10;;
61085;SDS011;46967;48.876;2.136;2023-05-07T02:07:21;5.00;;;2.15;;
61085;SDS011;46967;48.876;2.136;2023-05-07T02:09:47;6.97;;;1.92;;
61085;SDS011;46967;48.876;2.136;2023-05-07T02:12:12;7.93;;;1.90;;
61085;SDS011;46967;48.876;2.136;2023-05-07T02:14:37;3.42;;;1.60;;
61085;SDS011;46967;48.876;2.136;2023-05-07T02:17:02;2.95;;;1.30;;
61085;SDS011;46967;48.876;2.136;2023-05-07T02:19:28;2.65;;;0.80;;
61085;SDS011;46967;48.876;2.136;2023-05-07T02:21:53;3.42;;;1.00;;
61085;SDS011;46967;48.876;2.136;2023-05-07T02:24:19;2.70;;;1.33;;
61085;SDS011;46967;48.876;2.136;2023-05-07T02:26:44;3.00;;;1.00;;
61085;SDS011;46967;48.876;2.136;2023-05-07T02:29:10;2.63;;;1.10;;
61085;SDS011;46967;48.876;2.136;2023-05-07T02:31:35;1.90;;;0.90;;
61085;SDS011;46967;48.876;2.136;2023-05-07T02:34:00;3.97;;;1.00;;
61085;SDS011;46967;48.876;2.136;2023-05-07T02:36:26;2.30;;;0.75;;
61085;SDS011;46967;48.876;2.136;2023-05-07T02:38:51;3.00;;;0.80;;
61085;SDS011;46967;48.876;2.136;2023-05-07T02:41:17;1.35;;;0.68;;
61085;SDS011;46967;48.876;2.136;2023-05-07T02:43:42;1.92;;;0.65;;
61085;SDS011;46967;48.876;2.136;2023-05-07T02:46:08;2.95;;;0.60;;
61085;SDS011;46967;48.876;2.136;2023-05-07T02:48:34;1.88;;;0.60;;
61085;SDS011;46967;48.876;2.136;2023-05-07T02:51:00;1.27;;;0.55;;
61085;SDS011;46967;48.876;2.136;2023-05-07T02:53:26;1.50;;;0.60;;
61085;SDS011;46967;48.876;2.136;2023-05-07T02:55:52;2.00;;;0.70;;
61085;SDS011;46967;48.876;2.136;2023-05-07T02:58:18;1.17;;;0.60;;
61085;SDS011;46967;48.876;2.136;2023-05-07T03:00:44;1.05;;;0.50;;
61085;SDS011;46967;48.876;2.136;2023-05-07T03:03:09;0.73;;;0.52;;
61085;SDS011;46967;48.876;2.136;2023-05-07T03:05:35;1.67;;;0.50;;
61085;SDS011;46967;48.876;2.136;2023-05-07T03:08:01;2.00;;;0.45;;
61085;SDS011;46967;48.876;2.136;2023-05-07T03:10:26;1.15;;;0.38;;
61085;SDS011;46967;48.876;2.136;2023-05-07T03:12:51;1.65;;;0.60;;
61085;SDS011;46967;48.876;2.136;2023-05-07T03:15:17;1.73;;;0.70;;
61085;SDS011;46967;48.876;2.136;2023-05-07T03:17:42;1.55;;;0.60;;
61085;SDS011;46967;48.876;2.136;2023-05-07T03:20:08;2.35;;;0.50;;
61085;SDS011;46967;48.876;2.136;2023-05-07T03:22:34;1.90;;;0.50;;
61085;SDS011;46967;48.876;2.136;2023-05-07T03:25:00;4.75;;;0.60;;
61085;SDS011;46967;48.876;2.136;2023-05-07T03:27:25;1.85;;;0.50;;
61085;SDS011;46967;48.876;2.136;2023-05-07T03:29:50;1.90;;;0.60;;
61085;SDS011;46967;48.876;2.136;2023-05-07T03:32:16;5.75;;;0.50;;
61085;SDS011;46967;48.876;2.136;2023-05-07T03:34:41;1.73;;;0.50;;
61085;SDS011;46967;48.876;2.136;2023-05-07T03:37:06;2.13;;;0.50;;
61085;SDS011;46967;48.876;2.136;2023-05-07T03:39:31;0.88;;;0.50;;
61085;SDS011;46967;48.876;2.136;2023-05-07T03:41:57;0.60;;;0.55;;
61085;SDS011;46967;48.876;2.136;2023-05-07T03:44:23;1.45;;;0.38;;
61085;SDS011;46967;48.876;2.136;2023-05-07T03:46:48;1.73;;;0.60;;
61085;SDS011;46967;48.876;2.136;2023-05-07T03:49:13;0.43;;;0.30;;
61085;SDS011;46967;48.876;2.136;2023-05-07T03:51:39;1.63;;;0.50;;
61085;SDS011;46967;48.876;2.136;2023-05-07T03:54:04;3.50;;;1.20;;
61085;SDS011;46967;48.876;2.136;2023-05-07T03:56:30;0.40;;;0.40;;
61085;SDS011;46967;48.876;2.136;2023-05-07T03:58:56;2.92;;;0.73;;
61085;SDS011;46967;48.876;2.136;2023-05-07T04:01:21;3.25;;;0.40;;
61085;SDS011;46967;48.876;2.136;2023-05-07T04:03:47;1.52;;;0.40;;
61085;SDS011;46967;48.876;2.136;2023-05-07T04:06:12;4.55;;;0.57;;
61085;SDS011;46967;48.876;2.136;2023-05-07T04:08:37;3.38;;;0.35;;
61085;SDS011;46967;48.876;2.136;2023-05-07T04:11:03;1.00;;;0.40;;
61085;SDS011;46967;48.876;2.136;2023-05-07T04:13:29;1.20;;;0.40;;
61085;SDS011;46967;48.876;2.136;2023-05-07T04:15:55;1.02;;;0.50;;
61085;SDS011;46967;48.876;2.136;2023-05-07T04:18:21;0.77;;;0.50;;
61085;SDS011;46967;48.876;2.136;2023-05-07T04:20:47;3.63;;;0.60;;
61085;SDS011;46967;48.876;2.136;2023-05-07T04:23:12;2.95;;;0.50;;
61085;SDS011;46967;48.876;2.136;2023-05-07T04:25:38;0.88;;;0.32;;
61085;SDS011;46967;48.876;2.136;2023-05-07T04:28:03;1.63;;;0.50;;
61085;SDS011;46967;48.876;2.136;2023-05-07T04:30:29;0.88;;;0.52;;
61085;SDS011;46967;48.876;2.136;2023-05-07T04:32:54;1.88;;;0.70;;
61085;SDS011;46967;48.876;2.136;2023-05-07T04:35:21;0.60;;;0.22;;
61085;SDS011;46967;48.876;2.136;2023-05-07T04:37:46;4.68;;;0.75;;
61085;SDS011;46967;48.876;2.136;2023-05-07T04:40:11;0.85;;;0.50;;
61085;SDS011;46967;48.876;2.136;2023-05-07T04:42:37;3.42;;;0.50;;
61085;SDS011;46967;48.876;2.136;2023-05-07T04:45:02;2.92;;;1.08;;
61085;SDS011;46967;48.876;2.136;2023-05-07T04:47:28;0.65;;;0.40;;
61085;SDS011;46967;48.876;2.136;2023-05-07T04:49:53;4.90;;;1.40;;
61085;SDS011;46967;48.876;2.136;2023-05-07T04:52:18;1.80;;;0.63;;
61085;SDS011;46967;48.876;2.136;2023-05-07T04:54:44;0.95;;;0.57;;
61085;SDS011;46967;48.876;2.136;2023-05-07T04:57:09;1.38;;;0.60;;
61085;SDS011;46967;48.876;2.136;2023-05-07T04:59:35;1.17;;;0.60;;
61085;SDS011;46967;48.876;2.136;2023-05-07T05:02:00;0.60;;;0.50;;
61085;SDS011;46967;48.876;2.136;2023-05-07T05:04:26;0.45;;;0.45;;
61085;SDS011;46967;48.876;2.136;2023-05-07T05:06:52;0.70;;;0.50;;
61085;SDS011;46967;48.876;2.136;2023-05-07T05:09:17;0.45;;;0.45;;
61085;SDS011;46967;48.876;2.136;2023-05-07T05:11:42;0.68;;;0.50;;
61085;SDS011;46967;48.876;2.136;2023-05-07T05:14:08;0.60;;;0.40;;
61085;SDS011;46967;48.876;2.136;2023-05-07T05:16:33;0.73;;;0.38;;
61085;SDS011;46967;48.876;2.136;2023-05-07T05:18:59;2.08;;;0.38;;
61085;SDS011;46967;48.876;2.136;2023-05-07T05:21:24;17.13;;;4.00;;
61085;SDS011;46967;48.876;2.136;2023-05-07T05:23:50;1.23;;;0.40;;
61085;SDS011;46967;48.876;2.136;2023-05-07T05:26:15;2.38;;;0.52;;
61085;SDS011;46967;48.876;2.136;2023-05-07T05:28:40;1.17;;;0.45;;
61085;SDS011;46967;48.876;2.136;2023-05-07T05:31:06;1.13;;;0.60;;
61085;SDS011;46967;48.876;2.136;2023-05-07T05:33:31;2.13;;;0.68;;
61085;SDS011;46967;48.876;2.136;2023-05-07T05:35:56;2.33;;;0.60;;
61085;SDS011;46967;48.876;2.136;2023-05-07T05:38:22;1.20;;;0.70;;
61085;SDS011;46967;48.876;2.136;2023-05-07T05:40:47;1.98;;;0.50;;
61085;SDS011;46967;48.876;2.136;2023-05-07T05:43:13;2.63;;;0.60;;
61085;SDS011;46967;48.876;2.136;2023-05-07T05:45:39;0.88;;;0.60;;
61085;SDS011;46967;48.876;2.136;2023-05-07T05:48:05;1.40;;;0.57;;
61085;SDS011;46967;48.876;2.136;2023-05-07T05:50:30;1.60;;;0.70;;
61085;SDS011;46967;48.876;2.136;2023-05-07T05:52:55;1.10;;;0.68;;
61085;SDS011;46967;48.876;2.136;2023-05-07T05:55:21;2.63;;;0.65;;
61085;SDS011;46967;48.876;2.136;2023-05-07T05:57:47;1.10;;;0.43;;
61085;SDS011;46967;48.876;2.136;2023-05-07T06:00:13;2.63;;;0.63;;
61085;SDS011;46967;48.876;2.136;2023-05-07T06:02:38;2.08;;;0.57;;
61085;SDS011;46967;48.876;2.136;2023-05-07T06:05:04;0.52;;;0.50;;
61085;SDS011;46967;48.876;2.136;2023-05-07T06:07:29;2.35;;;0.60;;
61085;SDS011;46967;48.876;2.136;2023-05-07T06:09:55;2.78;;;0.60;;
61085;SDS011;46967;48.876;2.136;2023-05-07T06:12:20;1.17;;;0.52;;
61085;SDS011;46967;48.876;2.136;2023-05-07T06:14:46;1.58;;;0.65;;
61085;SDS011;46967;48.876;2.136;2023-05-07T06:17:11;1.92;;;0.70;;
61085;SDS011;46967;48.876;2.136;2023-05-07T06:19:36;1.05;;;0.60;;
61085;SDS011;46967;48.876;2.136;2023-05-07T06:22:02;0.82;;;0.50;;
61085;SDS011;46967;48.876;2.136;2023-05-07T06:24:27;3.35;;;0.63;;
61085;SDS011;46967;48.876;2.136;2023-05-07T06:26:53;1.10;;;0.50;;
61085;SDS011;46967;48.876;2.136;2023-05-07T06:29:18;0.77;;;0.70;;
61085;SDS011;46967;48.876;2.136;2023-05-07T06:31:44;1.83;;;0.80;;
61085;SDS011;46967;48.876;2.136;2023-05-07T06:34:09;1.85;;;0.60;;
61085;SDS011;46967;48.876;2.136;2023-05-07T06:39:04;1.45;;;0.73;;
61085;SDS011;46967;48.876;2.136;2023-05-07T06:41:29;0.85;;;0.45;;
61085;SDS011;46967;48.876;2.136;2023-05-07T06:43:54;0.95;;;0.50;;
61085;SDS011;46967;48.876;2.136;2023-05-07T06:46:20;1.20;;;0.50;;
61085;SDS011;46967;48.876;2.136;2023-05-07T06:48:45;1.08;;;0.50;;
61085;SDS011;46967;48.876;2.136;2023-05-07T06:51:11;1.33;;;0.70;;
61085;SDS011;46967;48.876;2.136;2023-05-07T06:53:36;1.45;;;0.75;;
61085;SDS011;46967;48.876;2.136;2023-05-07T06:56:01;2.50;;;0.77;;
61085;SDS011;46967;48.876;2.136;2023-05-07T06:58:27;1.95;;;0.60;;
61085;SDS011;46967;48.876;2.136;2023-05-07T07:00:52;3.53;;;0.63;;
61085;SDS011;46967;48.876;2.136;2023-05-07T07:03:17;1.83;;;0.80;;
61085;SDS011;46967;48.876;2.136;2023-05-07T07:05:43;2.58;;;0.65;;
61085;SDS011;46967;48.876;2.136;2023-05-07T07:08:09;3.72;;;0.60;;
61085;SDS011;46967;48.876;2.136;2023-05-07T07:10:35;2.60;;;0.60;;
61085;SDS011;46967;48.876;2.136;2023-05-07T07:13:00;1.00;;;0.55;;
61085;SDS011;46967;48.876;2.136;2023-05-07T07:15:26;4.22;;;0.57;;
61085;SDS011;46967;48.876;2.136;2023-05-07T07:17:51;0.85;;;0.60;;
61085;SDS011;46967;48.876;2.136;2023-05-07T07:20:16;2.92;;;0.60;;
61085;SDS011;46967;48.876;2.136;2023-05-07T07:22:42;1.85;;;0.70;;
61085;SDS011;46967;48.876;2.136;2023-05-07T07:25:07;1.40;;;0.68;;
61085;SDS011;46967;48.876;2.136;2023-05-07T07:27:33;3.78;;;0.60;;
61085;SDS011;46967;48.876;2.136;2023-05-07T07:29:59;1.58;;;0.60;;
61085;SDS011;46967;48.876;2.136;2023-05-07T07:32:24;1.67;;;0.50;;
61085;SDS011;46967;48.876;2.136;2023-05-07T07:34:50;2.33;;;0.70;;
61085;SDS011;46967;48.876;2.136;2023-05-07T07:37:15;1.10;;;0.60;;
61085;SDS011;46967;48.876;2.136;2023-05-07T07:39:41;1.20;;;0.52;;
61085;SDS011;46967;48.876;2.136;2023-05-07T07:42:06;2.40;;;0.85;;
61085;SDS011;46967;48.876;2.136;2023-05-07T07:44:32;1.10;;;0.70;;
61085;SDS011;46967;48.876;2.136;2023-05-07T07:46:57;2.95;;;0.60;;
61085;SDS011;46967;48.876;2.136;2023-05-07T07:49:22;1.60;;;0.50;;
61085;SDS011;46967;48.876;2.136;2023-05-07T07:51:48;5.68;;;0.68;;
61085;SDS011;46967;48.876;2.136;2023-05-07T07:54:13;2.05;;;0.70;;
61085;SDS011;46967;48.876;2.136;2023-05-07T07:56:38;0.80;;;0.77;;
61085;SDS011;46967;48.876;2.136;2023-05-07T07:59:04;1.35;;;0.60;;
61085;SDS011;46967;48.876;2.136;2023-05-07T08:01:30;1.58;;;0.73;;
61085;SDS011;46967;48.876;2.136;2023-05-07T08:03:55;6.75;;;1.30;;
61085;SDS011;46967;48.876;2.136;2023-05-07T08:06:23;1.85;;;0.90;;
61085;SDS011;46967;48.876;2.136;2023-05-07T08:08:49;1.95;;;0.80;;
61085;SDS011;46967;48.876;2.136;2023-05-07T08:11:14;1.80;;;0.82;;
61085;SDS011;46967;48.876;2.136;2023-05-07T08:13:39;2.45;;;1.00;;
61085;SDS011;46967;48.876;2.136;2023-05-07T08:16:05;2.17;;;1.00;;
61085;SDS011;46967;48.876;2.136;2023-05-07T08:18:30;2.38;;;0.73;;
61085;SDS011;46967;48.876;2.136;2023-05-07T08:20:56;2.75;;;0.80;;
61085;SDS011;46967;48.876;2.136;2023-05-07T08:23:21;1.27;;;1.00;;
61085;SDS011;46967;48.876;2.136;2023-05-07T08:25:47;1.38;;;0.63;;
61085;SDS011;46967;48.876;2.136;2023-05-07T08:28:14;1.50;;;0.73;;
61085;SDS011;46967;48.876;2.136;2023-05-07T08:30:39;3.15;;;0.98;;
61085;SDS011;46967;48.876;2.136;2023-05-07T08:33:04;1.83;;;0.73;;
61085;SDS011;46967;48.876;2.136;2023-05-07T08:35:30;1.77;;;0.80;;
61085;SDS011;46967;48.876;2.136;2023-05-07T08:37:55;2.88;;;0.80;;
61085;SDS011;46967;48.876;2.136;2023-05-07T08:40:22;0.98;;;0.88;;
61085;SDS011;46967;48.876;2.136;2023-05-07T08:42:51;2.50;;;1.10;;
61085;SDS011;46967;48.876;2.136;2023-05-07T08:45:18;3.45;;;1.10;;
61085;SDS011;46967;48.876;2.136;2023-05-07T08:47:44;2.55;;;1.30;;
61085;SDS011;46967;48.876;2.136;2023-05-07T08:50:12;3.63;;;1.05;;
61085;SDS011;46967;48.876;2.136;2023-05-07T08:52:39;3.47;;;0.73;;
61085;SDS011;46967;48.876;2.136;2023-05-07T08:55:05;2.40;;;0.90;;
61085;SDS011;46967;48.876;2.136;2023-05-07T08:57:32;1.35;;;0.88;;
61085;SDS011;46967;48.876;2.136;2023-05-07T08:59:57;2.70;;;0.65;;
61085;SDS011;46967;48.876;2.136;2023-05-07T09:02:22;2.75;;;1.00;;
61085;SDS011;46967;48.876;2.136;2023-05-07T09:04:48;1.63;;;0.80;;
61085;SDS011;46967;48.876;2.136;2023-05-07T09:07:13;1.40;;;0.80;;
61085;SDS011;46967;48.876;2.136;2023-05-07T09:09:39;1.60;;;0.75;;
61085;SDS011;46967;48.876;2.136;2023-05-07T09:12:04;2.53;;;0.70;;
61085;SDS011;46967;48.876;2.136;2023-05-07T09:14:30;2.08;;;1.00;;
61085;SDS011;46967;48.876;2.136;2023-05-07T09:16:55;1.15;;;0.70;;
61085;SDS011;46967;48.876;2.136;2023-05-07T09:19:25;1.25;;;0.70;;
61085;SDS011;46967;48.876;2.136;2023-05-07T09:22:09;1.35;;;0.90;;
61085;SDS011;46967;48.876;2.136;2023-05-07T09:24:34;1.52;;;1.02;;
61085;SDS011;46967;48.876;2.136;2023-05-07T09:27:02;3.40;;;0.80;;
61085;SDS011;46967;48.876;2.136;2023-05-07T09:29:31;3.20;;;0.80;;
61085;SDS011;46967;48.876;2.136;2023-05-07T09:32:06;0.88;;;0.70;;
61085;SDS011;46967;48.876;2.136;2023-05-07T09:34:32;3.10;;;1.13;;
61085;SDS011;46967;48.876;2.136;2023-05-07T09:37:01;1.58;;;0.80;;
61085;SDS011;46967;48.876;2.136;2023-05-07T09:39:37;1.20;;;0.80;;
61085;SDS011;46967;48.876;2.136;2023-05-07T09:42:03;3.75;;;1.52;;
61085;SDS011;46967;48.876;2.136;2023-05-07T09:44:31;1.70;;;0.95;;
61085;SDS011;46967;48.876;2.136;2023-05-07T09:46:57;3.78;;;1.10;;
61085;SDS011;46967;48.876;2.136;2023-05-07T09:49:25;3.60;;;0.80;;
61085;SDS011;46967;48.876;2.136;2023-05-07T09:51:55;3.35;;;0.80;;
61085;SDS011;46967;48.876;2.136;2023-05-07T09:54:21;3.17;;;0.90;;
61085;SDS011;46967;48.876;2.136;2023-05-07T09:56:50;5.25;;;0.90;;
61085;SDS011;46967;48.876;2.136;2023-05-07T09:59:17;5.63;;;1.00;;
61085;SDS011;46967;48.876;2.136;2023-05-07T10:01:43;4.03;;;0.93;;
61085;SDS011;46967;48.876;2.136;2023-05-07T10:04:10;2.25;;;1.40;;
61085;SDS011;46967;48.876;2.136;2023-05-07T10:06:36;4.55;;;1.00;;
61085;SDS011;46967;48.876;2.136;2023-05-07T10:09:05;1.35;;;0.75;;
61085;SDS011;46967;48.876;2.136;2023-05-07T10:11:32;2.05;;;1.10;;
61085;SDS011;46967;48.876;2.136;2023-05-07T10:13:58;1.10;;;0.80;;
61085;SDS011;46967;48.876;2.136;2023-05-07T10:16:26;2.22;;;1.20;;
61085;SDS011;46967;48.876;2.136;2023-05-07T10:18:52;2.22;;;1.20;;
61085;SDS011;46967;48.876;2.136;2023-05-07T10:21:20;6.95;;;1.75;;
61085;SDS011;46967;48.876;2.136;2023-05-07T10:23:49;3.05;;;1.17;;
61085;SDS011;46967;48.876;2.136;2023-05-07T10:26:17;3.05;;;1.50;;
61085;SDS011;46967;48.876;2.136;2023-05-07T10:28:46;4.03;;;1.55;;
61085;SDS011;46967;48.876;2.136;2023-05-07T10:34:08;2.45;;;1.63;;
61085;SDS011;46967;48.876;2.136;2023-05-07T10:36:38;2.22;;;1.35;;
61085;SDS011;46967;48.876;2.136;2023-05-07T10:39:04;1.77;;;1.27;;
61085;SDS011;46967;48.876;2.136;2023-05-07T10:41:31;4.05;;;1.60;;
61085;SDS011;46967;48.876;2.136;2023-05-07T10:43:56;3.58;;;1.30;;
61085;SDS011;46967;48.876;2.136;2023-05-07T10:46:21;2.30;;;1.35;;
61085;SDS011;46967;48.876;2.136;2023-05-07T10:51:28;4.00;;;1.45;;
61085;SDS011;46967;48.876;2.136;2023-05-07T10:56:39;2.13;;;1.38;;
61085;SDS011;46967;48.876;2.136;2023-05-07T11:04:19;3.72;;;1.48;;
61085;SDS011;46967;48.876;2.136;2023-05-07T11:15:00;2.08;;;1.50;;
61085;SDS011;46967;48.876;2.136;2023-05-07T11:26:09;2.70;;;1.40;;
61085;SDS011;46967;48.876;2.136;2023-05-07T11:28:39;4.93;;;1.55;;
61085;SDS011;46967;48.876;2.136;2023-05-07T11:31:06;2.08;;;1.40;;
61085;SDS011;46967;48.876;2.136;2023-05-07T11:33:32;1.70;;;1.50;;
61085;SDS011;46967;48.876;2.136;2023-05-07T11:35:59;2.50;;;1.40;;
61085;SDS011;46967;48.876;2.136;2023-05-07T11:38:25;2.40;;;1.10;;
61085;SDS011;46967;48.876;2.136;2023-05-07T11:40:57;3.10;;;1.70;;
61085;SDS011;46967;48.876;2.136;2023-05-07T11:43:27;2.80;;;1.50;;
61085;SDS011;46967;48.876;2.136;2023-05-07T11:45:53;2.13;;;1.45;;
61085;SDS011;46967;48.876;2.136;2023-05-07T11:48:18;4.82;;;1.77;;
61085;SDS011;46967;48.876;2.136;2023-05-07T11:53:27;2.25;;;1.33;;
61085;SDS011;46967;48.876;2.136;2023-05-07T11:55:59;2.53;;;1.50;;
61085;SDS011;46967;48.876;2.136;2023-05-07T11:58:25;6.93;;;1.33;;
61085;SDS011;46967;48.876;2.136;2023-05-07T12:00:51;2.83;;;1.45;;
61085;SDS011;46967;48.876;2.136;2023-05-07T12:03:18;3.70;;;1.38;;
61085;SDS011;46967;48.876;2.136;2023-05-07T12:05:44;4.88;;;1.90;;
61085;SDS011;46967;48.876;2.136;2023-05-07T12:08:19;1.50;;;1.20;;
61085;SDS011;46967;48.876;2.136;2023-05-07T12:10:49;2.88;;;1.40;;
61085;SDS011;46967;48.876;2.136;2023-05-07T12:15:41;2.63;;;1.10;;
61085;SDS011;46967;48.876;2.136;2023-05-07T12:18:07;1.75;;;1.40;;
61085;SDS011;46967;48.876;2.136;2023-05-07T12:20:33;4.15;;;1.33;;
61085;SDS011;46967;48.876;2.136;2023-05-07T12:23:00;5.47;;;1.80;;
61085;SDS011;46967;48.876;2.136;2023-05-07T12:25:26;4.43;;;2.95;;
61085;SDS011;46967;48.876;2.136;2023-05-07T12:27:52;6.30;;;2.50;;
61085;SDS011;46967;48.876;2.136;2023-05-07T12:30:18;3.33;;;2.40;;
61085;SDS011;46967;48.876;2.136;2023-05-07T12:32:44;3.05;;;2.22;;
61085;SDS011;46967;48.876;2.136;2023-05-07T12:35:10;3.67;;;2.10;;
61085;SDS011;46967;48.876;2.136;2023-05-07T12:37:35;4.05;;;1.90;;
61085;SDS011;46967;48.876;2.136;2023-05-07T12:40:04;6.07;;;2.47;;
61085;SDS011;46967;48.876;2.136;2023-05-07T12:42:37;11.55;;;2.45;;
61085;SDS011;46967;48.876;2.136;2023-05-07T12:47:44;3.80;;;2.05;;
61085;SDS011;46967;48.876;2.136;2023-05-07T12:50:10;5.75;;;1.95;;
61085;SDS011;46967;48.876;2.136;2023-05-07T12:52:36;7.32;;;2.55;;
61085;SDS011;46967;48.876;2.136;2023-05-07T12:55:05;4.85;;;2.28;;
61085;SDS011;46967;48.876;2.136;2023-05-07T12:57:37;6.22;;;1.98;;
61085;SDS011;46967;48.876;2.136;2023-05-07T13:00:06;3.08;;;1.90;;
61085;SDS011;46967;48.876;2.136;2023-05-07T13:02:32;1.83;;;1.52;;
61085;SDS011;46967;48.876;2.136;2023-05-07T13:04:59;3.00;;;1.85;;
61085;SDS011;46967;48.876;2.136;2023-05-07T13:07:25;5.00;;;1.73;;
61085;SDS011;46967;48.876;2.136;2023-05-07T13:09:50;4.32;;;2.38;;
61085;SDS011;46967;48.876;2.136;2023-05-07T13:12:16;2.22;;;1.98;;
61085;SDS011;46967;48.876;2.136;2023-05-07T13:14:41;4.18;;;1.92;;
61085;SDS011;46967;48.876;2.136;2023-05-07T13:17:06;5.93;;;2.22;;
61085;SDS011;46967;48.876;2.136;2023-05-07T13:19:31;3.28;;;2.13;;
61085;SDS011;46967;48.876;2.136;2023-05-07T13:21:57;3.10;;;2.42;;
61085;SDS011;46967;48.876;2.136;2023-05-07T13:24:22;7.68;;;2.80;;
61085;SDS011;46967;48.876;2.136;2023-05-07T13:26:47;3.30;;;2.60;;
61085;SDS011;46967;48.876;2.136;2023-05-07T13:29:13;3.17;;;2.38;;
61085;SDS011;46967;48.876;2.136;2023-05-07T13:31:38;4.97;;;2.35;;
61085;SDS011;46967;48.876;2.136;2023-05-07T13:34:07;4.25;;;2.67;;
61085;SDS011;46967;48.876;2.136;2023-05-07T13:36:33;4.28;;;2.30;;
61085;SDS011;46967;48.876;2.136;2023-05-07T13:39:02;3.80;;;2.13;;
61085;SDS011;46967;48.876;2.136;2023-05-07T13:41:28;4.40;;;2.38;;
61085;SDS011;46967;48.876;2.136;2023-05-07T13:43:54;4.80;;;2.60;;
61085;SDS011;46967;48.876;2.136;2023-05-07T13:46:19;3.60;;;2.55;;
61085;SDS011;46967;48.876;2.136;2023-05-07T13:48:44;2.45;;;2.20;;
61085;SDS011;46967;48.876;2.136;2023-05-07T13:51:10;2.80;;;2.42;;
61085;SDS011;46967;48.876;2.136;2023-05-07T13:53:35;5.78;;;2.45;;
61085;SDS011;46967;48.876;2.136;2023-05-07T13:56:01;3.47;;;2.53;;
61085;SDS011;46967;48.876;2.136;2023-05-07T13:58:29;4.35;;;2.35;;
61085;SDS011;46967;48.876;2.136;2023-05-07T14:00:55;4.18;;;2.30;;
61085;SDS011;46967;48.876;2.136;2023-05-07T14:03:20;3.38;;;2.42;;
61085;SDS011;46967;48.876;2.136;2023-05-07T14:05:45;3.60;;;2.42;;
61085;SDS011;46967;48.876;2.136;2023-05-07T14:08:11;3.10;;;2.08;;
61085;SDS011;46967;48.876;2.136;2023-05-07T14:10:38;2.28;;;1.88;;
61085;SDS011;46967;48.876;2.136;2023-05-07T14:13:04;2.20;;;1.70;;
61085;SDS011;46967;48.876;2.136;2023-05-07T14:15:30;3.08;;;1.90;;
61085;SDS011;46967;48.876;2.136;2023-05-07T14:17:57;2.33;;;1.65;;
61085;SDS011;46967;48.876;2.136;2023-05-07T14:20:23;2.20;;;1.70;;
61085;SDS011;46967;48.876;2.136;2023-05-07T14:22:49;2.90;;;1.75;;
61085;SDS011;46967;48.876;2.136;2023-05-07T14:25:15;2.55;;;1.90;;
61085;SDS011;46967;48.876;2.136;2023-05-07T14:27:40;2.03;;;1.83;;
61085;SDS011;46967;48.876;2.136;2023-05-07T14:30:06;4.18;;;2.20;;
61085;SDS011;46967;48.876;2.136;2023-05-07T14:32:32;3.28;;;2.25;;
61085;SDS011;46967;48.876;2.136;2023-05-07T14:34:58;3.05;;;1.80;;
61085;SDS011;46967;48.876;2.136;2023-05-07T14:37:23;2.30;;;1.70;;
61085;SDS011;46967;48.876;2.136;2023-05-07T14:39:49;2.72;;;1.60;;
61085;SDS011;46967;48.876;2.136;2023-05-07T14:42:14;2.72;;;1.80;;
61085;SDS011;46967;48.876;2.136;2023-05-07T14:44:40;3.70;;;1.77;;
61085;SDS011;46967;48.876;2.136;2023-05-07T14:47:06;2.20;;;1.63;;
61085;SDS011;46967;48.876;2.136;2023-05-07T14:49:32;2.28;;;1.55;;
61085;SDS011;46967;48.876;2.136;2023-05-07T14:51:58;2.58;;;1.50;;
61085;SDS011;46967;48.876;2.136;2023-05-07T14:54:26;2.78;;;1.88;;
61085;SDS011;46967;48.876;2.136;2023-05-07T14:56:52;1.33;;;1.10;;
61085;SDS011;46967;48.876;2.136;2023-05-07T14:59:18;1.98;;;1.27;;
61085;SDS011;46967;48.876;2.136;2023-05-07T15:01:46;1.75;;;1.33;;
61085;SDS011;46967;48.876;2.136;2023-05-07T15:04:13;2.67;;;1.20;;
61085;SDS011;46967;48.876;2.136;2023-05-07T15:06:38;2.10;;;1.63;;
61085;SDS011;46967;48.876;2.136;2023-05-07T15:09:03;2.63;;;1.90;;
61085;SDS011;46967;48.876;2.136;2023-05-07T15:11:29;3.40;;;2.10;;
61085;SDS011;46967;48.876;2.136;2023-05-07T15:13:55;5.95;;;2.10;;
61085;SDS011;46967;48.876;2.136;2023-05-07T15:16:20;4.50;;;1.70;;
61085;SDS011;46967;48.876;2.136;2023-05-07T15:18:46;3.22;;;1.20;;
61085;SDS011;46967;48.876;2.136;2023-05-07T15:21:11;8.43;;;1.73;;